createdAt,value
2019-02-21T00:01:56.434Z,22.47
2019-02-21T00:04:31.443Z,28.87
2019-02-21T00:07:06.482Z,23.83
2019-02-21T00:09:41.506Z,31.33
2019-02-21T00:12:16.908Z,22.47
2019-02-21T00:14:52.208Z,26.77
2019-02-21T00:17:27.506Z,28.57
2019-02-21T00:20:02.560Z,23.63
2019-02-21T00:22:39.452Z,24.40
2019-02-21T00:25:14.822Z,24.50
2019-02-21T00:27:50.097Z,28.20
2019-02-21T00:30:34.943Z,31.17
2019-02-21T00:33:01.849Z,22.10
2019-02-21T00:35:36.933Z,24.43
2019-02-21T00:38:12.890Z,38.10
2019-02-21T00:40:48.826Z,33.63
2019-02-21T00:43:24.902Z,25.27
2019-02-21T00:46:00.203Z,34.57
2019-02-21T00:48:35.317Z,36.87
2019-02-21T00:51:10.333Z,20.17
2019-02-21T00:53:45.660Z,24.37
2019-02-21T00:56:22.454Z,20.17
2019-02-21T00:58:57.476Z,25.30
2019-02-21T01:01:32.865Z,22.40
2019-02-21T01:04:07.966Z,24.70
2019-02-21T01:06:45.075Z,25.03
2019-02-21T01:09:20.853Z,38.67
2019-02-21T01:11:55.911Z,30.90
2019-02-21T01:14:31.017Z,27.90
2019-02-21T01:17:06.442Z,21.27
2019-02-21T01:19:41.467Z,20.37
2019-02-21T01:22:16.479Z,20.67
2019-02-21T01:24:51.557Z,21.03
2019-02-21T01:27:26.561Z,26.60
2019-02-21T01:30:01.601Z,22.20
2019-02-21T01:32:37.984Z,25.60
2019-02-21T01:35:13.273Z,22.43
2019-02-21T01:37:48.574Z,33.50
2019-02-21T01:40:23.838Z,23.37
2019-02-21T01:43:00.106Z,37.30
2019-02-21T01:45:35.153Z,27.57
2019-02-21T01:48:12.138Z,32.93
2019-02-21T01:50:47.590Z,20.93
2019-02-21T01:53:22.651Z,17.23
2019-02-21T01:55:57.848Z,23.37
2019-02-21T01:58:33.225Z,27.13
2019-02-21T02:01:09.069Z,21.27
2019-02-21T02:03:44.303Z,30.97
2019-02-21T02:06:19.358Z,24.93
2019-02-21T02:08:54.728Z,21.17
2019-02-21T02:11:30.649Z,25.57
2019-02-21T02:14:05.778Z,26.00
2019-02-21T02:16:40.805Z,22.80
2019-02-21T02:19:15.860Z,28.43
2019-02-21T02:21:51.252Z,17.60
2019-02-21T02:24:26.316Z,26.73
2019-02-21T02:27:01.602Z,21.13
2019-02-21T02:29:36.737Z,28.13
2019-02-21T02:32:12.982Z,34.43
2019-02-21T02:34:48.021Z,31.37
2019-02-21T02:37:23.317Z,33.83
2019-02-21T02:39:59.340Z,27.03
2019-02-21T02:42:34.394Z,26.27
2019-02-21T02:45:09.620Z,27.00
2019-02-21T02:47:44.962Z,25.40
2019-02-21T02:50:20.083Z,31.13
2019-02-21T02:52:55.377Z,32.43
2019-02-21T02:55:30.393Z,32.80
2019-02-21T02:58:06.528Z,33.83
2019-02-21T03:00:42.146Z,33.43
2019-02-21T03:03:17.257Z,28.30
2019-02-21T03:05:52.294Z,29.23
2019-02-21T03:08:27.601Z,43.40
2019-02-21T03:11:03.623Z,24.33
2019-02-21T03:13:39.642Z,32.50
2019-02-21T03:16:14.746Z,49.23
2019-02-21T03:18:51.026Z,35.43
2019-02-21T03:21:26.457Z,32.80
2019-02-21T03:24:01.492Z,29.30
2019-02-21T03:26:36.591Z,38.27
2019-02-21T03:29:11.986Z,34.10
2019-02-21T03:31:54.487Z,32.13
2019-02-21T03:34:24.098Z,35.73
2019-02-21T03:36:59.268Z,33.93
2019-02-21T03:39:34.791Z,29.20
2019-02-21T03:42:09.807Z,27.47
2019-02-21T03:44:44.982Z,42.07
2019-02-21T03:47:20.017Z,31.47
2019-02-21T03:49:55.052Z,67.63
2019-02-21T03:52:30.477Z,36.73
2019-02-21T03:55:06.824Z,37.00
2019-02-21T03:57:41.946Z,39.03
2019-02-21T04:00:16.990Z,39.87
2019-02-21T04:02:52.343Z,41.57
2019-02-21T04:05:27.411Z,45.17
2019-02-21T04:08:02.521Z,39.50
2019-02-21T04:10:37.970Z,41.67
2019-02-21T04:13:15.207Z,44.37
2019-02-21T04:15:52.962Z,53.27
2019-02-21T04:18:27.654Z,45.50
2019-02-21T04:21:02.492Z,44.90
2019-02-21T04:23:37.531Z,42.30
2019-02-21T04:26:12.662Z,46.63
2019-02-21T04:28:47.710Z,44.20
2019-02-21T04:31:22.850Z,45.47
2019-02-21T04:33:57.895Z,46.00
2019-02-21T04:36:32.929Z,48.83
2019-02-21T04:39:08.048Z,45.07
2019-02-21T04:41:43.079Z,46.57
2019-02-21T04:44:18.183Z,49.07
2019-02-21T04:46:54.609Z,47.50
2019-02-21T04:49:29.607Z,43.43
2019-02-21T04:52:05.009Z,48.40
2019-02-21T04:54:40.076Z,50.27
2019-02-21T04:57:15.126Z,51.67
2019-02-21T04:59:50.160Z,57.37
2019-02-21T05:02:29.196Z,45.03
2019-02-21T05:05:01.987Z,49.87
2019-02-21T05:07:37.425Z,48.50
2019-02-21T05:10:13.364Z,52.60
2019-02-21T05:12:48.401Z,54.97
2019-02-21T05:15:23.913Z,48.20
2019-02-21T05:17:58.628Z,50.23
2019-02-21T05:20:33.492Z,59.07
2019-02-21T05:23:09.229Z,43.47
2019-02-21T05:25:44.436Z,59.63
2019-02-21T05:28:27.156Z,57.53
2019-02-21T05:31:03.515Z,73.50
2019-02-21T05:33:45.079Z,76.80
2019-02-21T05:36:25.050Z,58.60
2019-02-21T05:39:01.737Z,62.47
2019-02-21T05:41:42.753Z,69.53
2019-02-21T05:44:21.790Z,59.93
2019-02-21T05:47:11.023Z,56.47
2019-02-21T05:50:04.926Z,53.43
2019-02-21T05:52:59.011Z,52.97
2019-02-21T05:55:36.165Z,56.90
2019-02-21T05:58:27.250Z,70.80
2019-02-21T06:01:10.503Z,55.23
2019-02-21T06:04:00.459Z,55.63
2019-02-21T06:06:38.760Z,58.37
2019-02-21T06:09:33.702Z,58.90
2019-02-21T06:12:10.429Z,64.63
2019-02-21T06:14:53.556Z,49.70
2019-02-21T06:17:30.668Z,56.17
2019-02-21T06:20:25.329Z,64.23
2019-02-21T06:23:01.834Z,57.37
2019-02-21T06:25:53.007Z,59.13
2019-02-21T06:28:26.778Z,65.93
2019-02-21T06:31:03.297Z,67.57
2019-02-21T06:33:40.313Z,59.23
2019-02-21T06:36:15.356Z,64.80
2019-02-21T06:38:50.057Z,60.17
2019-02-21T06:41:26.254Z,57.87
2019-02-21T06:44:01.681Z,63.43
2019-02-21T06:46:36.728Z,58.77
2019-02-21T06:49:11.822Z,60.47
2019-02-21T06:51:47.773Z,60.13
2019-02-21T06:54:22.982Z,60.70
2019-02-21T06:56:59.105Z,59.57
2019-02-21T06:59:43.363Z,65.50
2019-02-21T07:02:13.561Z,63.10
2019-02-21T07:04:48.554Z,54.73
2019-02-21T07:07:23.595Z,53.37
2019-02-21T07:09:58.619Z,68.40
2019-02-21T07:12:34.033Z,67.27
2019-02-21T07:15:11.031Z,58.13
2019-02-21T07:17:49.199Z,65.60
2019-02-21T07:20:22.881Z,58.83
2019-02-21T07:22:58.090Z,52.67
2019-02-21T07:25:45.054Z,58.03
2019-02-21T07:28:21.599Z,61.83
2019-02-21T07:30:56.706Z,56.03
2019-02-21T07:33:31.749Z,47.70
2019-02-21T07:36:06.778Z,56.20
2019-02-21T07:38:42.323Z,55.67
2019-02-21T07:41:24.585Z,49.13
2019-02-21T07:44:11.182Z,52.73
2019-02-21T07:46:36.634Z,55.07
2019-02-21T07:49:15.571Z,56.10
2019-02-21T07:51:51.667Z,54.50
2019-02-21T07:54:27.153Z,55.70
2019-02-21T07:57:02.242Z,53.77
2019-02-21T07:59:37.742Z,51.67
2019-02-21T08:02:13.704Z,55.63
2019-02-21T08:04:48.544Z,52.77
2019-02-21T08:07:23.124Z,62.80
2019-02-21T08:09:57.627Z,50.60
2019-02-21T08:12:32.161Z,48.00
2019-02-21T08:15:08.445Z,51.67
2019-02-21T08:17:43.259Z,62.00
2019-02-21T08:20:17.834Z,56.03
2019-02-21T08:22:52.657Z,51.20
2019-02-21T08:25:28.489Z,41.07
2019-02-21T08:28:03.655Z,50.23
2019-02-21T08:30:38.480Z,57.40
2019-02-21T08:33:15.253Z,57.23
2019-02-21T08:35:53.965Z,56.47
2019-02-21T08:38:29.508Z,66.90
2019-02-21T08:41:04.209Z,59.07
2019-02-21T08:43:39.990Z,68.07
2019-02-21T08:46:15.026Z,54.57
2019-02-21T08:48:50.605Z,79.80
2019-02-21T08:51:25.731Z,61.10
2019-02-21T08:54:01.412Z,60.50
2019-02-21T08:56:38.457Z,57.13
2019-02-21T08:59:12.981Z,47.57
2019-02-21T09:01:47.919Z,60.80
2019-02-21T09:04:27.584Z,58.43
2019-02-21T09:06:59.157Z,53.37
2019-02-21T09:09:34.017Z,48.33
2019-02-21T09:12:09.596Z,60.20
2019-02-21T09:14:44.550Z,55.50
2019-02-21T09:17:19.341Z,51.10
2019-02-21T09:19:54.699Z,50.27
2019-02-21T09:22:30.754Z,52.47
2019-02-21T09:25:07.003Z,53.03
2019-02-21T09:27:43.284Z,47.37
2019-02-21T09:30:21.291Z,52.70
2019-02-21T09:32:56.857Z,69.10
2019-02-21T09:35:31.697Z,55.20
2019-02-21T09:38:06.284Z,65.37
2019-02-21T09:40:42.761Z,40.80
2019-02-21T09:43:17.523Z,47.10
2019-02-21T09:45:53.438Z,48.30
2019-02-21T09:48:27.986Z,49.63
2019-02-21T09:51:02.978Z,53.90
2019-02-21T09:53:37.589Z,54.87
2019-02-21T09:56:12.350Z,50.80
2019-02-21T09:58:46.894Z,49.03
2019-02-21T10:01:21.459Z,59.20
2019-02-21T10:03:57.366Z,53.60
2019-02-21T10:06:32.501Z,49.73
2019-02-21T10:09:09.391Z,44.77
2019-02-21T10:11:44.245Z,50.13
2019-02-21T10:14:21.932Z,55.40
2019-02-21T10:16:57.026Z,45.10
2019-02-21T10:19:35.598Z,52.97
2019-02-21T10:22:11.094Z,48.70
2019-02-21T10:24:46.538Z,51.03
2019-02-21T10:27:21.886Z,41.67
2019-02-21T10:29:57.213Z,54.77
2019-02-21T10:32:32.276Z,42.60
2019-02-21T10:35:08.241Z,39.23
2019-02-21T10:37:43.320Z,37.97
2019-02-21T10:40:19.850Z,37.83
2019-02-21T10:42:56.322Z,52.73
2019-02-21T10:45:31.350Z,36.23
2019-02-21T10:48:06.390Z,30.17
2019-02-21T10:50:42.403Z,44.03
2019-02-21T10:53:17.474Z,47.10
2019-02-21T10:55:53.842Z,37.50
2019-02-21T10:58:29.875Z,38.33
2019-02-21T11:01:06.301Z,35.43
2019-02-21T11:03:41.388Z,41.40
2019-02-21T11:06:16.490Z,58.43
2019-02-21T11:08:51.639Z,35.03
2019-02-21T11:11:27.773Z,36.97
2019-02-21T11:14:05.117Z,38.60
2019-02-21T11:16:40.260Z,29.80
2019-02-21T11:19:16.397Z,33.40
2019-02-21T11:21:51.538Z,44.03
2019-02-21T11:24:30.216Z,33.00
2019-02-21T11:27:05.233Z,39.37
2019-02-21T11:29:41.267Z,37.20
2019-02-21T11:32:16.438Z,33.60
2019-02-21T11:34:51.813Z,30.73
2019-02-21T11:37:26.902Z,35.40
2019-02-21T11:40:07.446Z,31.03
2019-02-21T11:42:42.520Z,32.50
2019-02-21T11:45:18.624Z,37.23
2019-02-21T11:47:53.836Z,44.07
2019-02-21T11:50:29.336Z,31.00
2019-02-21T11:53:04.756Z,33.93
2019-02-21T11:55:40.213Z,39.80
2019-02-21T11:58:16.173Z,35.57
2019-02-21T12:00:51.525Z,33.37
2019-02-21T12:03:27.671Z,24.13
2019-02-21T12:06:04.763Z,30.57
2019-02-21T12:08:41.705Z,31.40
2019-02-21T12:11:16.749Z,26.83
2019-02-21T12:13:53.221Z,30.80
2019-02-21T12:16:28.273Z,24.53
2019-02-21T12:19:03.842Z,29.63
2019-02-21T12:21:39.626Z,38.03
2019-02-21T12:24:14.770Z,63.47
2019-02-21T12:26:50.182Z,31.27
2019-02-21T12:29:25.294Z,39.50
2019-02-21T12:32:00.386Z,29.40
2019-02-21T12:34:36.430Z,31.87
2019-02-21T12:37:12.775Z,32.50
2019-02-21T12:39:47.818Z,37.73
2019-02-21T12:42:22.865Z,35.97
2019-02-21T12:44:57.937Z,34.00
2019-02-21T12:47:33.036Z,37.23
2019-02-21T12:50:10.299Z,33.70
2019-02-21T12:52:45.338Z,30.43
2019-02-21T12:55:28.183Z,28.70
2019-02-21T12:57:57.310Z,28.63
2019-02-21T13:00:32.349Z,37.77
2019-02-21T13:03:07.454Z,34.33
2019-02-21T13:05:44.690Z,34.87
2019-02-21T13:08:20.147Z,37.83
2019-02-21T13:10:55.198Z,33.73
2019-02-21T13:13:30.235Z,37.80
2019-02-21T13:16:05.268Z,33.80
2019-02-21T13:18:40.304Z,29.63
2019-02-21T13:21:15.342Z,27.40
2019-02-21T13:23:50.782Z,28.50
2019-02-21T13:26:26.109Z,22.77
2019-02-21T13:29:01.464Z,30.13
2019-02-21T13:31:36.903Z,23.50
2019-02-21T13:34:12.839Z,26.07
2019-02-21T13:36:47.972Z,33.23
2019-02-21T13:39:23.958Z,34.17
2019-02-21T13:41:58.994Z,36.70
2019-02-21T13:44:35.073Z,21.87
2019-02-21T13:47:10.171Z,31.70
2019-02-21T13:49:45.551Z,31.77
2019-02-21T13:52:21.146Z,26.97
2019-02-21T13:54:57.107Z,18.00
2019-02-21T13:57:32.483Z,23.57
2019-02-21T14:00:13.614Z,33.73
2019-02-21T14:02:49.926Z,22.90
2019-02-21T14:05:25.965Z,26.97
2019-02-21T14:08:01.054Z,25.83
2019-02-21T14:10:36.139Z,29.53
2019-02-21T14:13:11.902Z,22.23
2019-02-21T14:15:48.582Z,21.23
2019-02-21T14:18:24.498Z,29.67
2019-02-21T14:20:59.750Z,31.43
2019-02-21T14:23:34.769Z,34.77
2019-02-21T14:26:10.094Z,27.80
2019-02-21T14:28:45.136Z,27.30
2019-02-21T14:31:20.342Z,29.83
2019-02-21T14:33:55.405Z,22.30
2019-02-21T14:36:30.541Z,27.83
2019-02-21T14:39:06.250Z,31.97
2019-02-21T14:41:43.879Z,31.50
2019-02-21T14:44:18.527Z,30.67
2019-02-21T14:46:53.959Z,29.87
2019-02-21T14:49:28.987Z,23.80
2019-02-21T14:52:05.538Z,25.97
2019-02-21T14:54:40.820Z,29.63
2019-02-21T14:57:16.135Z,23.10
2019-02-21T14:59:52.141Z,23.47
2019-02-21T15:02:27.523Z,23.17
2019-02-21T15:05:06.701Z,24.10
2019-02-21T15:07:42.100Z,25.50
2019-02-21T15:10:17.195Z,22.53
2019-02-21T15:12:52.762Z,23.50
2019-02-21T15:15:28.650Z,29.13
2019-02-21T15:18:07.609Z,40.03
2019-02-21T15:20:43.377Z,41.60
2019-02-21T15:23:18.530Z,28.63
2019-02-21T15:25:54.474Z,28.53
2019-02-21T15:28:29.525Z,32.07
2019-02-21T15:31:04.646Z,22.33
2019-02-21T15:33:40.915Z,26.87
2019-02-21T15:36:16.043Z,25.53
2019-02-21T15:38:52.050Z,29.23
2019-02-21T15:41:27.103Z,27.40
2019-02-21T15:44:02.174Z,20.90
2019-02-21T15:46:37.488Z,31.40
2019-02-21T15:49:13.920Z,24.07
2019-02-21T15:51:49.057Z,29.13
2019-02-21T15:54:25.882Z,31.77
2019-02-21T15:57:00.909Z,25.47
2019-02-21T15:59:36.863Z,27.30
2019-02-21T16:02:13.072Z,27.30
2019-02-21T16:04:48.380Z,40.57
2019-02-21T16:07:23.693Z,30.13
2019-02-21T16:10:00.031Z,30.97
2019-02-21T16:12:35.247Z,36.73
2019-02-21T16:15:16.422Z,34.63
2019-02-21T16:17:51.026Z,31.67
2019-02-21T16:20:28.133Z,28.40
2019-02-21T16:23:03.483Z,33.93
2019-02-21T16:25:39.738Z,24.63
2019-02-21T16:28:14.774Z,44.47
2019-02-21T16:30:51.412Z,27.43
2019-02-21T16:33:29.876Z,32.43
2019-02-21T16:36:04.917Z,29.03
2019-02-21T16:38:41.187Z,31.97
2019-02-21T16:41:16.535Z,22.40
2019-02-21T16:43:51.944Z,27.50
2019-02-21T16:46:27.484Z,25.17
2019-02-21T16:49:02.556Z,38.73
2019-02-21T16:51:38.001Z,23.83
2019-02-21T16:54:14.099Z,34.10
2019-02-21T16:56:49.154Z,17.90
2019-02-21T16:59:24.164Z,23.00
2019-02-21T17:01:59.237Z,21.93
2019-02-21T17:04:34.361Z,27.03
2019-02-21T17:07:13.709Z,33.50
2019-02-21T17:09:48.709Z,35.83
2019-02-21T17:12:24.019Z,33.57
2019-02-21T17:14:59.324Z,57.80
2019-02-21T17:17:34.335Z,20.27
2019-02-21T17:20:12.805Z,39.83
2019-02-21T17:22:48.393Z,28.43
2019-02-21T17:25:23.440Z,24.73
2019-02-21T17:27:58.475Z,27.70
2019-02-21T17:30:33.597Z,23.93
2019-02-21T17:33:08.635Z,24.30
2019-02-21T17:35:43.672Z,28.37
2019-02-21T17:38:19.095Z,25.67
2019-02-21T17:40:54.424Z,23.47
2019-02-21T17:43:29.759Z,28.80
2019-02-21T17:46:05.132Z,25.07
2019-02-21T17:48:41.260Z,36.93
2019-02-21T17:51:16.713Z,45.97
2019-02-21T17:53:52.941Z,39.63
2019-02-21T17:56:28.743Z,34.80
2019-02-21T17:59:06.043Z,67.63
2019-02-21T18:01:41.171Z,31.17
2019-02-21T18:04:16.259Z,40.23
2019-02-21T18:06:53.279Z,32.50
2019-02-21T18:09:28.338Z,36.93
2019-02-21T18:12:03.674Z,30.63
2019-02-21T18:14:38.806Z,52.17
2019-02-21T18:17:13.842Z,36.20
2019-02-21T18:19:49.976Z,59.03
2019-02-21T18:22:25.075Z,43.07
2019-02-21T18:25:01.289Z,46.80
2019-02-21T18:27:36.835Z,45.67
2019-02-21T18:30:14.922Z,52.97
2019-02-21T18:32:50.014Z,47.23
2019-02-21T18:35:27.034Z,49.57
2019-02-21T18:38:02.072Z,51.73
2019-02-21T18:40:37.218Z,57.93
2019-02-21T18:43:12.241Z,60.10
2019-02-21T18:45:47.609Z,54.33
2019-02-21T18:48:22.625Z,55.67
2019-02-21T18:50:57.675Z,52.30
2019-02-21T18:53:33.057Z,73.13
2019-02-21T18:56:08.705Z,60.73
2019-02-21T18:58:44.046Z,69.00
2019-02-21T19:01:22.392Z,65.63
2019-02-21T19:03:57.821Z,60.03
2019-02-21T19:06:32.929Z,50.23
2019-02-21T19:09:08.132Z,62.20
2019-02-21T19:11:43.720Z,53.73
2019-02-21T19:14:18.833Z,54.60
2019-02-21T19:16:55.812Z,49.07
2019-02-21T19:19:30.871Z,62.37
2019-02-21T19:22:06.412Z,59.33
2019-02-21T19:24:41.528Z,57.93
2019-02-21T19:27:16.566Z,63.10
2019-02-21T19:29:51.621Z,58.97
2019-02-21T19:32:26.974Z,61.47
2019-02-21T19:35:02.031Z,56.00
2019-02-21T19:37:37.557Z,54.77
2019-02-21T19:40:13.260Z,62.80
2019-02-21T19:42:48.726Z,64.33
2019-02-21T19:45:24.382Z,67.67
2019-02-21T19:47:59.562Z,68.77
2019-02-21T19:50:34.680Z,70.83
2019-02-21T19:53:09.829Z,67.43
2019-02-21T19:55:45.007Z,64.33
2019-02-21T19:58:21.402Z,64.27
2019-02-21T20:00:56.971Z,59.43
2019-02-21T20:03:32.007Z,55.67
2019-02-21T20:06:07.429Z,77.23
2019-02-21T20:08:43.455Z,71.07
2019-02-21T20:11:18.585Z,81.07
2019-02-21T20:13:53.971Z,79.87
2019-02-21T20:16:29.168Z,83.93
2019-02-21T20:19:04.222Z,66.87
2019-02-21T20:21:39.576Z,74.27
2019-02-21T20:24:14.631Z,80.17
2019-02-21T20:26:49.676Z,66.03
2019-02-21T20:29:25.722Z,75.60
2019-02-21T20:32:00.753Z,62.30
2019-02-21T20:34:38.926Z,68.83
2019-02-21T20:37:14.913Z,68.47
2019-02-21T20:39:49.952Z,70.23
2019-02-21T20:42:26.081Z,62.70
2019-02-21T20:45:02.390Z,62.87
2019-02-21T20:47:38.650Z,67.27
2019-02-21T20:50:14.123Z,61.97
2019-02-21T20:52:49.154Z,70.03
2019-02-21T20:55:24.567Z,71.97
2019-02-21T20:57:59.651Z,71.17
2019-02-21T21:00:34.871Z,71.70
2019-02-21T21:03:10.595Z,67.70
2019-02-21T21:05:46.167Z,78.70
2019-02-21T21:08:21.348Z,70.60
2019-02-21T21:10:56.534Z,85.90
2019-02-21T21:13:31.630Z,79.60
2019-02-21T21:16:07.683Z,77.20
2019-02-21T21:18:43.060Z,66.93
2019-02-21T21:21:18.520Z,63.60
2019-02-21T21:23:53.866Z,65.30
2019-02-21T21:26:29.358Z,60.17
2019-02-21T21:29:04.843Z,73.70
2019-02-21T21:31:40.187Z,66.17
2019-02-21T21:34:16.349Z,62.17
2019-02-21T21:36:51.461Z,70.17
2019-02-21T21:39:26.495Z,68.63
2019-02-21T21:42:01.527Z,63.67
2019-02-21T21:44:36.569Z,70.70
2019-02-21T21:47:12.718Z,57.60
2019-02-21T21:49:48.187Z,59.33
2019-02-21T21:52:23.223Z,55.70
2019-02-21T21:54:58.563Z,59.77
2019-02-21T21:57:33.705Z,77.67
2019-02-21T22:00:18.128Z,65.20
2019-02-21T22:02:53.692Z,63.83
2019-02-21T22:05:28.706Z,59.67
2019-02-21T22:08:03.743Z,67.93
2019-02-21T22:10:41.168Z,58.53
2019-02-21T22:13:16.234Z,57.80
2019-02-21T22:15:51.613Z,61.57
2019-02-21T22:18:27.713Z,78.73
2019-02-21T22:21:04.647Z,57.63
2019-02-21T22:23:40.029Z,64.40
2019-02-21T22:26:15.047Z,76.07
2019-02-21T22:28:52.348Z,63.57
2019-02-21T22:31:27.474Z,68.20
2019-02-21T22:34:02.511Z,60.00
2019-02-21T22:36:37.556Z,61.53
2019-02-21T22:39:16.371Z,50.97
2019-02-21T22:41:49.346Z,60.00
2019-02-21T22:44:25.285Z,53.47
2019-02-21T22:47:01.383Z,56.77
2019-02-21T22:49:37.494Z,55.80
2019-02-21T22:52:12.887Z,60.03
2019-02-21T22:54:47.907Z,51.10
2019-02-21T22:57:22.936Z,47.80
2019-02-21T22:59:58.044Z,55.30
2019-02-21T23:02:34.874Z,56.00
2019-02-21T23:05:19.822Z,56.97
2019-02-21T23:07:55.127Z,50.37
2019-02-21T23:10:30.173Z,52.97
2019-02-21T23:13:05.198Z,49.50
2019-02-21T23:15:43.041Z,49.57
2019-02-21T23:18:18.519Z,54.90
2019-02-21T23:20:53.554Z,38.23
2019-02-21T23:23:28.989Z,64.60
2019-02-21T23:26:04.739Z,44.70
2019-02-21T23:28:40.180Z,45.13
2019-02-21T23:31:15.213Z,34.77
2019-02-21T23:33:54.353Z,34.20
2019-02-21T23:36:29.409Z,32.43
2019-02-21T23:39:05.641Z,29.97
2019-02-21T23:41:41.461Z,28.00
2019-02-21T23:44:16.844Z,31.00
2019-02-21T23:46:54.341Z,30.43
2019-02-21T23:49:30.713Z,33.93
2019-02-21T23:52:06.045Z,31.03
2019-02-21T23:54:41.959Z,23.63
2019-02-21T23:57:17.254Z,21.30
2019-02-21T23:59:52.296Z,26.80
